sensor_id;sensor_type;location;lat;lon;timestamp;P1;durP1;ratioP1;P2;durP2;ratioP2
27957;SDS011;15295;42.658;23.374;2024-03-23T00:55:22;13.95;;;6.85;;
27957;SDS011;15295;42.658;23.374;2024-03-23T00:57:50;11.80;;;6.53;;
27957;SDS011;15295;42.658;23.374;2024-03-23T01:03:30;11.98;;;6.35;;
27957;SDS011;15295;42.658;23.374;2024-03-23T01:06:09;11.70;;;6.70;;
27957;SDS011;15295;42.658;23.374;2024-03-23T01:09:00;12.05;;;6.88;;
27957;SDS011;15295;42.658;23.374;2024-03-23T01:11:44;14.00;;;6.80;;
27957;SDS011;15295;42.658;23.374;2024-03-23T01:15:12;12.57;;;6.70;;
27957;SDS011;15295;42.658;23.374;2024-03-23T01:20:48;10.98;;;6.82;;
27957;SDS011;15295;42.658;23.374;2024-03-23T01:23:37;13.82;;;6.97;;
27957;SDS011;15295;42.658;23.374;2024-03-23T01:26:21;18.38;;;7.50;;
27957;SDS011;15295;42.658;23.374;2024-03-23T01:32:11;10.73;;;5.90;;
27957;SDS011;15295;42.658;23.374;2024-03-23T01:35:08;13.65;;;7.03;;
27957;SDS011;15295;42.658;23.374;2024-03-23T01:37:53;13.25;;;6.50;;
27957;SDS011;15295;42.658;23.374;2024-03-23T01:40:31;15.07;;;6.60;;
27957;SDS011;15295;42.658;23.374;2024-03-23T01:43:19;11.60;;;5.75;;
27957;SDS011;15295;42.658;23.374;2024-03-23T01:45:50;11.15;;;6.20;;
27957;SDS011;15295;42.658;23.374;2024-03-23T01:49:15;10.55;;;5.75;;
27957;SDS011;15295;42.658;23.374;2024-03-23T01:51:47;11.80;;;6.20;;
27957;SDS011;15295;42.658;23.374;2024-03-23T01:54:24;18.83;;;6.68;;
27957;SDS011;15295;42.658;23.374;2024-03-23T01:57:21;11.20;;;5.88;;
27957;SDS011;15295;42.658;23.374;2024-03-23T02:00:14;13.60;;;6.40;;
27957;SDS011;15295;42.658;23.374;2024-03-23T02:02:59;11.40;;;6.88;;
27957;SDS011;15295;42.658;23.374;2024-03-23T02:06:13;11.93;;;6.20;;
27957;SDS011;15295;42.658;23.374;2024-03-23T02:09:21;13.13;;;6.60;;
27957;SDS011;15295;42.658;23.374;2024-03-23T02:11:51;15.20;;;6.35;;
27957;SDS011;15295;42.658;23.374;2024-03-23T02:14:53;16.70;;;6.70;;
27957;SDS011;15295;42.658;23.374;2024-03-23T02:17:21;16.80;;;6.93;;
27957;SDS011;15295;42.658;23.374;2024-03-23T02:20:03;15.25;;;6.28;;
27957;SDS011;15295;42.658;23.374;2024-03-23T02:22:42;13.70;;;6.38;;
27957;SDS011;15295;42.658;23.374;2024-03-23T02:25:17;11.98;;;6.60;;
27957;SDS011;15295;42.658;23.374;2024-03-23T02:27:47;12.63;;;6.82;;
27957;SDS011;15295;42.658;23.374;2024-03-23T02:30:21;13.30;;;6.72;;
27957;SDS011;15295;42.658;23.374;2024-03-23T02:33:08;11.63;;;7.15;;
27957;SDS011;15295;42.658;23.374;2024-03-23T02:35:59;14.57;;;6.45;;
27957;SDS011;15295;42.658;23.374;2024-03-23T02:38:36;11.23;;;6.63;;
27957;SDS011;15295;42.658;23.374;2024-03-23T02:44:33;17.23;;;7.88;;
27957;SDS011;15295;42.658;23.374;2024-03-23T02:47:03;17.58;;;8.07;;
27957;SDS011;15295;42.658;23.374;2024-03-23T02:52:35;17.50;;;7.68;;
27957;SDS011;15295;42.658;23.374;2024-03-23T02:55:07;19.50;;;8.70;;
27957;SDS011;15295;42.658;23.374;2024-03-23T02:57:43;18.23;;;7.68;;
27957;SDS011;15295;42.658;23.374;2024-03-23T03:00:17;16.45;;;7.22;;
27957;SDS011;15295;42.658;23.374;2024-03-23T03:03:00;13.95;;;7.18;;
27957;SDS011;15295;42.658;23.374;2024-03-23T03:05:38;17.05;;;7.75;;
27957;SDS011;15295;42.658;23.374;2024-03-23T03:08:09;13.45;;;7.68;;
27957;SDS011;15295;42.658;23.374;2024-03-23T03:13:34;12.02;;;7.10;;
27957;SDS011;15295;42.658;23.374;2024-03-23T03:16:08;13.02;;;7.05;;
27957;SDS011;15295;42.658;23.374;2024-03-23T03:18:41;15.25;;;7.53;;
27957;SDS011;15295;42.658;23.374;2024-03-23T03:21:14;13.55;;;7.05;;
27957;SDS011;15295;42.658;23.374;2024-03-23T03:24:05;16.63;;;6.63;;
27957;SDS011;15295;42.658;23.374;2024-03-23T03:26:33;10.73;;;6.65;;
27957;SDS011;15295;42.658;23.374;2024-03-23T03:29:34;15.05;;;6.57;;
27957;SDS011;15295;42.658;23.374;2024-03-23T03:32:08;12.55;;;5.85;;
27957;SDS011;15295;42.658;23.374;2024-03-23T03:34:38;15.68;;;7.57;;
27957;SDS011;15295;42.658;23.374;2024-03-23T03:37:26;11.57;;;6.65;;
27957;SDS011;15295;42.658;23.374;2024-03-23T03:43:23;16.70;;;7.03;;
27957;SDS011;15295;42.658;23.374;2024-03-23T03:46:20;18.00;;;7.40;;
27957;SDS011;15295;42.658;23.374;2024-03-23T03:48:56;20.77;;;7.43;;
27957;SDS011;15295;42.658;23.374;2024-03-23T03:51:52;18.08;;;8.48;;
27957;SDS011;15295;42.658;23.374;2024-03-23T03:54:25;19.58;;;8.93;;
27957;SDS011;15295;42.658;23.374;2024-03-23T03:57:15;18.90;;;8.95;;
27957;SDS011;15295;42.658;23.374;2024-03-23T04:00:12;16.88;;;9.40;;
27957;SDS011;15295;42.658;23.374;2024-03-23T04:03:19;20.95;;;9.48;;
27957;SDS011;15295;42.658;23.374;2024-03-23T04:06:34;16.42;;;7.85;;
27957;SDS011;15295;42.658;23.374;2024-03-23T04:09:19;13.82;;;7.57;;
27957;SDS011;15295;42.658;23.374;2024-03-23T04:11:58;13.05;;;5.70;;
27957;SDS011;15295;42.658;23.374;2024-03-23T04:14:36;10.75;;;5.90;;
27957;SDS011;15295;42.658;23.374;2024-03-23T04:17:04;12.82;;;6.05;;
27957;SDS011;15295;42.658;23.374;2024-03-23T04:19:37;12.13;;;5.93;;
27957;SDS011;15295;42.658;23.374;2024-03-23T04:25:13;12.15;;;5.97;;
27957;SDS011;15295;42.658;23.374;2024-03-23T04:27:47;14.48;;;5.97;;
27957;SDS011;15295;42.658;23.374;2024-03-23T04:30:35;15.13;;;6.93;;
27957;SDS011;15295;42.658;23.374;2024-03-23T04:33:36;12.00;;;6.78;;
27957;SDS011;15295;42.658;23.374;2024-03-23T04:36:16;24.88;;;11.00;;
27957;SDS011;15295;42.658;23.374;2024-03-23T04:38:45;15.70;;;6.30;;
27957;SDS011;15295;42.658;23.374;2024-03-23T04:44:51;14.95;;;6.15;;
27957;SDS011;15295;42.658;23.374;2024-03-23T04:47:32;11.90;;;6.35;;
27957;SDS011;15295;42.658;23.374;2024-03-23T04:50:10;18.02;;;6.45;;
27957;SDS011;15295;42.658;23.374;2024-03-23T04:52:46;13.75;;;5.82;;
27957;SDS011;15295;42.658;23.374;2024-03-23T04:55:12;11.52;;;6.20;;
27957;SDS011;15295;42.658;23.374;2024-03-23T04:58:06;17.00;;;7.32;;
27957;SDS011;15295;42.658;23.374;2024-03-23T05:00:38;13.10;;;6.05;;
27957;SDS011;15295;42.658;23.374;2024-03-23T05:03:21;14.02;;;6.93;;
27957;SDS011;15295;42.658;23.374;2024-03-23T05:05:51;12.48;;;6.38;;
27957;SDS011;15295;42.658;23.374;2024-03-23T05:08:27;13.40;;;6.78;;
27957;SDS011;15295;42.658;23.374;2024-03-23T05:10:59;11.05;;;5.93;;
27957;SDS011;15295;42.658;23.374;2024-03-23T05:13:43;15.45;;;7.00;;
27957;SDS011;15295;42.658;23.374;2024-03-23T05:16:16;13.43;;;7.05;;
27957;SDS011;15295;42.658;23.374;2024-03-23T05:18:49;15.18;;;7.30;;
27957;SDS011;15295;42.658;23.374;2024-03-23T05:21:21;15.95;;;7.75;;
27957;SDS011;15295;42.658;23.374;2024-03-23T05:23:50;16.92;;;7.53;;
27957;SDS011;15295;42.658;23.374;2024-03-23T05:26:19;18.02;;;6.63;;
27957;SDS011;15295;42.658;23.374;2024-03-23T05:29:07;16.95;;;7.55;;
27957;SDS011;15295;42.658;23.374;2024-03-23T05:31:38;15.63;;;8.52;;
27957;SDS011;15295;42.658;23.374;2024-03-23T05:34:24;16.50;;;8.05;;
27957;SDS011;15295;42.658;23.374;2024-03-23T05:37:25;15.98;;;8.75;;
27957;SDS011;15295;42.658;23.374;2024-03-23T05:40:03;15.27;;;8.27;;
27957;SDS011;15295;42.658;23.374;2024-03-23T05:43:16;18.33;;;8.77;;
27957;SDS011;15295;42.658;23.374;2024-03-23T05:48:46;15.90;;;7.63;;
27957;SDS011;15295;42.658;23.374;2024-03-23T05:52:05;15.68;;;6.97;;
27957;SDS011;15295;42.658;23.374;2024-03-23T05:54:56;15.50;;;6.95;;
27957;SDS011;15295;42.658;23.374;2024-03-23T05:57:25;15.32;;;7.10;;
27957;SDS011;15295;42.658;23.374;2024-03-23T06:00:25;13.88;;;6.85;;
27957;SDS011;15295;42.658;23.374;2024-03-23T06:02:59;14.68;;;7.10;;
27957;SDS011;15295;42.658;23.374;2024-03-23T06:05:39;12.25;;;6.90;;
27957;SDS011;15295;42.658;23.374;2024-03-23T06:08:25;12.43;;;7.10;;
27957;SDS011;15295;42.658;23.374;2024-03-23T06:10:53;10.52;;;6.38;;
27957;SDS011;15295;42.658;23.374;2024-03-23T06:13:51;12.27;;;6.60;;
27957;SDS011;15295;42.658;23.374;2024-03-23T06:16:48;13.77;;;7.20;;
27957;SDS011;15295;42.658;23.374;2024-03-23T06:19:14;13.70;;;7.00;;
27957;SDS011;15295;42.658;23.374;2024-03-23T06:21:45;12.60;;;6.55;;
27957;SDS011;15295;42.658;23.374;2024-03-23T06:24:21;12.57;;;6.43;;
27957;SDS011;15295;42.658;23.374;2024-03-23T06:26:50;13.10;;;6.53;;
27957;SDS011;15295;42.658;23.374;2024-03-23T06:29:32;14.80;;;6.55;;
27957;SDS011;15295;42.658;23.374;2024-03-23T06:32:06;15.30;;;7.78;;
27957;SDS011;15295;42.658;23.374;2024-03-23T06:34:46;14.32;;;6.38;;
27957;SDS011;15295;42.658;23.374;2024-03-23T06:37:12;15.90;;;7.00;;
27957;SDS011;15295;42.658;23.374;2024-03-23T06:39:46;12.68;;;7.50;;
27957;SDS011;15295;42.658;23.374;2024-03-23T06:42:15;18.38;;;7.45;;
27957;SDS011;15295;42.658;23.374;2024-03-23T06:44:47;15.80;;;8.43;;
27957;SDS011;15295;42.658;23.374;2024-03-23T06:47:18;18.52;;;8.10;;
27957;SDS011;15295;42.658;23.374;2024-03-23T06:49:59;15.15;;;8.02;;
27957;SDS011;15295;42.658;23.374;2024-03-23T06:52:39;15.05;;;8.00;;
27957;SDS011;15295;42.658;23.374;2024-03-23T06:55:24;89.13;;;30.17;;
27957;SDS011;15295;42.658;23.374;2024-03-23T07:02:08;141.55;;;45.83;;
27957;SDS011;15295;42.658;23.374;2024-03-23T07:05:35;102.10;;;33.83;;
27957;SDS011;15295;42.658;23.374;2024-03-23T07:08:46;29.17;;;12.95;;
27957;SDS011;15295;42.658;23.374;2024-03-23T07:19:26;29.17;;;12.43;;
27957;SDS011;15295;42.658;23.374;2024-03-23T07:24:32;21.77;;;10.95;;
27957;SDS011;15295;42.658;23.374;2024-03-23T07:26:57;23.50;;;10.75;;
27957;SDS011;15295;42.658;23.374;2024-03-23T07:29:23;21.67;;;11.00;;
27957;SDS011;15295;42.658;23.374;2024-03-23T07:31:49;20.05;;;10.85;;
27957;SDS011;15295;42.658;23.374;2024-03-23T07:34:14;21.70;;;11.20;;
27957;SDS011;15295;42.658;23.374;2024-03-23T07:36:40;24.45;;;10.63;;
27957;SDS011;15295;42.658;23.374;2024-03-23T07:39:18;19.33;;;9.82;;
27957;SDS011;15295;42.658;23.374;2024-03-23T07:41:50;19.65;;;10.75;;
27957;SDS011;15295;42.658;23.374;2024-03-23T07:44:15;25.88;;;11.93;;
27957;SDS011;15295;42.658;23.374;2024-03-23T07:46:40;21.52;;;11.63;;
27957;SDS011;15295;42.658;23.374;2024-03-23T07:49:06;19.80;;;11.75;;
27957;SDS011;15295;42.658;23.374;2024-03-23T07:51:32;23.58;;;11.00;;
27957;SDS011;15295;42.658;23.374;2024-03-23T07:53:58;24.88;;;12.43;;
27957;SDS011;15295;42.658;23.374;2024-03-23T07:56:24;24.23;;;11.68;;
27957;SDS011;15295;42.658;23.374;2024-03-23T07:58:49;22.98;;;10.70;;
27957;SDS011;15295;42.658;23.374;2024-03-23T08:01:15;17.65;;;11.15;;
27957;SDS011;15295;42.658;23.374;2024-03-23T08:03:43;28.13;;;12.90;;
27957;SDS011;15295;42.658;23.374;2024-03-23T08:06:14;19.70;;;11.23;;
27957;SDS011;15295;42.658;23.374;2024-03-23T08:08:41;19.30;;;10.18;;
27957;SDS011;15295;42.658;23.374;2024-03-23T08:11:07;18.40;;;10.98;;
27957;SDS011;15295;42.658;23.374;2024-03-23T08:13:34;20.65;;;11.70;;
27957;SDS011;15295;42.658;23.374;2024-03-23T08:16:01;19.25;;;10.75;;
27957;SDS011;15295;42.658;23.374;2024-03-23T08:18:28;17.23;;;10.23;;
27957;SDS011;15295;42.658;23.374;2024-03-23T08:21:05;18.50;;;11.25;;
27957;SDS011;15295;42.658;23.374;2024-03-23T08:23:32;21.05;;;10.77;;
27957;SDS011;15295;42.658;23.374;2024-03-23T08:26:01;22.48;;;11.57;;
27957;SDS011;15295;42.658;23.374;2024-03-23T08:28:27;27.73;;;11.43;;
27957;SDS011;15295;42.658;23.374;2024-03-23T08:30:53;18.90;;;10.95;;
27957;SDS011;15295;42.658;23.374;2024-03-23T08:33:22;22.40;;;11.20;;
27957;SDS011;15295;42.658;23.374;2024-03-23T08:35:54;20.15;;;11.65;;
27957;SDS011;15295;42.658;23.374;2024-03-23T08:38:21;23.02;;;13.18;;
27957;SDS011;15295;42.658;23.374;2024-03-23T08:40:47;24.83;;;10.52;;
27957;SDS011;15295;42.658;23.374;2024-03-23T08:43:14;19.55;;;10.93;;
27957;SDS011;15295;42.658;23.374;2024-03-23T08:45:39;20.95;;;11.20;;
27957;SDS011;15295;42.658;23.374;2024-03-23T08:48:05;19.85;;;11.18;;
27957;SDS011;15295;42.658;23.374;2024-03-23T08:50:30;26.10;;;11.73;;
27957;SDS011;15295;42.658;23.374;2024-03-23T08:52:56;23.88;;;12.38;;
27957;SDS011;15295;42.658;23.374;2024-03-23T08:55:23;24.80;;;11.45;;
27957;SDS011;15295;42.658;23.374;2024-03-23T08:57:49;23.52;;;12.00;;
27957;SDS011;15295;42.658;23.374;2024-03-23T09:00:16;18.92;;;11.10;;
27957;SDS011;15295;42.658;23.374;2024-03-23T09:02:42;24.83;;;11.40;;
27957;SDS011;15295;42.658;23.374;2024-03-23T09:05:07;24.20;;;11.52;;
27957;SDS011;15295;42.658;23.374;2024-03-23T09:07:33;20.48;;;11.30;;
27957;SDS011;15295;42.658;23.374;2024-03-23T09:09:59;19.08;;;11.38;;
27957;SDS011;15295;42.658;23.374;2024-03-23T09:12:25;26.50;;;14.80;;
27957;SDS011;15295;42.658;23.374;2024-03-23T09:14:50;26.15;;;11.68;;
27957;SDS011;15295;42.658;23.374;2024-03-23T09:17:16;18.42;;;10.13;;
27957;SDS011;15295;42.658;23.374;2024-03-23T09:19:43;19.00;;;10.18;;
27957;SDS011;15295;42.658;23.374;2024-03-23T09:22:08;43.38;;;20.52;;
27957;SDS011;15295;42.658;23.374;2024-03-23T09:24:35;22.27;;;12.88;;
27957;SDS011;15295;42.658;23.374;2024-03-23T09:27:01;20.60;;;11.10;;
27957;SDS011;15295;42.658;23.374;2024-03-23T09:29:28;18.33;;;10.23;;
27957;SDS011;15295;42.658;23.374;2024-03-23T09:37:09;13.90;;;9.15;;
27957;SDS011;15295;42.658;23.374;2024-03-23T09:39:41;22.40;;;13.73;;
27957;SDS011;15295;42.658;23.374;2024-03-23T09:42:08;16.33;;;8.73;;
27957;SDS011;15295;42.658;23.374;2024-03-23T09:44:41;14.82;;;8.10;;
27957;SDS011;15295;42.658;23.374;2024-03-23T09:47:07;18.05;;;10.13;;
27957;SDS011;15295;42.658;23.374;2024-03-23T09:49:38;16.55;;;9.48;;
27957;SDS011;15295;42.658;23.374;2024-03-23T09:52:07;21.13;;;11.52;;
27957;SDS011;15295;42.658;23.374;2024-03-23T09:56:59;18.60;;;8.73;;
27957;SDS011;15295;42.658;23.374;2024-03-23T09:59:25;18.38;;;9.23;;
27957;SDS011;15295;42.658;23.374;2024-03-23T10:02:02;19.90;;;9.20;;
27957;SDS011;15295;42.658;23.374;2024-03-23T10:04:41;19.65;;;9.68;;
27957;SDS011;15295;42.658;23.374;2024-03-23T10:07:17;23.55;;;16.50;;
27957;SDS011;15295;42.658;23.374;2024-03-23T10:12:26;16.20;;;8.90;;
27957;SDS011;15295;42.658;23.374;2024-03-23T10:14:54;17.02;;;11.48;;
27957;SDS011;15295;42.658;23.374;2024-03-23T10:17:42;10.18;;;7.53;;
27957;SDS011;15295;42.658;23.374;2024-03-23T10:20:11;16.50;;;7.68;;
27957;SDS011;15295;42.658;23.374;2024-03-23T10:22:43;15.20;;;7.80;;
27957;SDS011;15295;42.658;23.374;2024-03-23T10:25:30;16.45;;;8.77;;
27957;SDS011;15295;42.658;23.374;2024-03-23T10:27:58;14.45;;;7.20;;
27957;SDS011;15295;42.658;23.374;2024-03-23T10:30:30;37.70;;;24.15;;
27957;SDS011;15295;42.658;23.374;2024-03-23T10:33:11;21.77;;;9.00;;
27957;SDS011;15295;42.658;23.374;2024-03-23T10:35:48;18.00;;;8.88;;
27957;SDS011;15295;42.658;23.374;2024-03-23T10:38:14;15.68;;;9.48;;
27957;SDS011;15295;42.658;23.374;2024-03-23T10:40:46;15.68;;;9.50;;
27957;SDS011;15295;42.658;23.374;2024-03-23T10:43:12;15.70;;;8.55;;
27957;SDS011;15295;42.658;23.374;2024-03-23T10:45:46;15.30;;;9.05;;
27957;SDS011;15295;42.658;23.374;2024-03-23T10:48:19;17.42;;;10.00;;
27957;SDS011;15295;42.658;23.374;2024-03-23T10:50:49;17.10;;;9.50;;
27957;SDS011;15295;42.658;23.374;2024-03-23T10:53:14;16.10;;;9.32;;
27957;SDS011;15295;42.658;23.374;2024-03-23T10:55:50;16.63;;;9.73;;
27957;SDS011;15295;42.658;23.374;2024-03-23T10:58:17;17.85;;;10.02;;
27957;SDS011;15295;42.658;23.374;2024-03-23T11:00:46;17.35;;;9.38;;
27957;SDS011;15295;42.658;23.374;2024-03-23T11:03:31;14.23;;;9.40;;
27957;SDS011;15295;42.658;23.374;2024-03-23T11:06:05;17.67;;;9.15;;
27957;SDS011;15295;42.658;23.374;2024-03-23T11:08:42;14.25;;;9.02;;
27957;SDS011;15295;42.658;23.374;2024-03-23T11:22:35;13.85;;;9.40;;
27957;SDS011;15295;42.658;23.374;2024-03-23T11:25:24;15.98;;;7.90;;
27957;SDS011;15295;42.658;23.374;2024-03-23T11:28:26;13.05;;;8.70;;
27957;SDS011;15295;42.658;23.374;2024-03-23T11:30:46;15.75;;;8.45;;
27957;SDS011;15295;42.658;23.374;2024-03-23T11:33:12;14.10;;;8.00;;
27957;SDS011;15295;42.658;23.374;2024-03-23T11:35:44;16.35;;;9.18;;
27957;SDS011;15295;42.658;23.374;2024-03-23T11:38:13;15.25;;;9.48;;
27957;SDS011;15295;42.658;23.374;2024-03-23T11:42:03;20.58;;;11.20;;
27957;SDS011;15295;42.658;23.374;2024-03-23T11:44:48;15.48;;;8.60;;
27957;SDS011;15295;42.658;23.374;2024-03-23T11:47:26;12.73;;;8.05;;
27957;SDS011;15295;42.658;23.374;2024-03-23T11:49:56;14.10;;;8.30;;
27957;SDS011;15295;42.658;23.374;2024-03-23T11:52:51;15.05;;;8.68;;
27957;SDS011;15295;42.658;23.374;2024-03-23T11:55:16;17.42;;;8.07;;
27957;SDS011;15295;42.658;23.374;2024-03-23T11:57:42;18.80;;;10.30;;
27957;SDS011;15295;42.658;23.374;2024-03-23T12:00:20;20.33;;;9.43;;
27957;SDS011;15295;42.658;23.374;2024-03-23T12:02:49;24.45;;;15.48;;
27957;SDS011;15295;42.658;23.374;2024-03-23T12:05:21;20.17;;;10.70;;
27957;SDS011;15295;42.658;23.374;2024-03-23T12:07:49;12.27;;;7.72;;
27957;SDS011;15295;42.658;23.374;2024-03-23T12:10:15;14.48;;;8.75;;
27957;SDS011;15295;42.658;23.374;2024-03-23T12:12:44;15.65;;;8.57;;
27957;SDS011;15295;42.658;23.374;2024-03-23T12:15:14;16.88;;;8.65;;
27957;SDS011;15295;42.658;23.374;2024-03-23T12:17:44;18.05;;;9.32;;
27957;SDS011;15295;42.658;23.374;2024-03-23T12:20:18;20.35;;;12.32;;
27957;SDS011;15295;42.658;23.374;2024-03-23T12:22:47;28.90;;;16.85;;
27957;SDS011;15295;42.658;23.374;2024-03-23T12:25:32;22.10;;;11.73;;
27957;SDS011;15295;42.658;23.374;2024-03-23T12:30:52;14.45;;;9.65;;
27957;SDS011;15295;42.658;23.374;2024-03-23T12:33:26;11.95;;;8.50;;
27957;SDS011;15295;42.658;23.374;2024-03-23T12:35:52;17.13;;;7.53;;
27957;SDS011;15295;42.658;23.374;2024-03-23T12:41:18;12.90;;;9.02;;
27957;SDS011;15295;42.658;23.374;2024-03-23T12:43:44;18.00;;;8.95;;
27957;SDS011;15295;42.658;23.374;2024-03-23T12:46:10;16.38;;;8.38;;
27957;SDS011;15295;42.658;23.374;2024-03-23T12:48:36;14.45;;;7.13;;
27957;SDS011;15295;42.658;23.374;2024-03-23T12:51:02;15.52;;;7.97;;
27957;SDS011;15295;42.658;23.374;2024-03-23T12:53:27;14.75;;;7.90;;
27957;SDS011;15295;42.658;23.374;2024-03-23T12:55:55;14.20;;;7.43;;
27957;SDS011;15295;42.658;23.374;2024-03-23T12:58:35;14.07;;;7.97;;
27957;SDS011;15295;42.658;23.374;2024-03-23T13:01:03;16.65;;;6.75;;
27957;SDS011;15295;42.658;23.374;2024-03-23T13:03:29;13.32;;;8.55;;
27957;SDS011;15295;42.658;23.374;2024-03-23T13:08:36;12.13;;;7.72;;
27957;SDS011;15295;42.658;23.374;2024-03-23T13:11:02;10.23;;;5.82;;
27957;SDS011;15295;42.658;23.374;2024-03-23T13:14:02;7.68;;;4.10;;
27957;SDS011;15295;42.658;23.374;2024-03-23T13:16:52;5.22;;;3.88;;
27957;SDS011;15295;42.658;23.374;2024-03-23T13:22:48;5.93;;;3.70;;
27957;SDS011;15295;42.658;23.374;2024-03-23T13:25:16;8.52;;;3.65;;
27957;SDS011;15295;42.658;23.374;2024-03-23T13:27:43;7.05;;;3.85;;
27957;SDS011;15295;42.658;23.374;2024-03-23T13:30:09;6.25;;;3.72;;
27957;SDS011;15295;42.658;23.374;2024-03-23T13:32:35;6.30;;;3.80;;
27957;SDS011;15295;42.658;23.374;2024-03-23T13:35:01;5.32;;;3.83;;
27957;SDS011;15295;42.658;23.374;2024-03-23T13:37:27;12.15;;;6.95;;
27957;SDS011;15295;42.658;23.374;2024-03-23T13:39:52;14.00;;;7.53;;
27957;SDS011;15295;42.658;23.374;2024-03-23T13:42:17;5.68;;;2.92;;
27957;SDS011;15295;42.658;23.374;2024-03-23T13:44:44;8.93;;;4.63;;
27957;SDS011;15295;42.658;23.374;2024-03-23T13:47:09;9.18;;;4.85;;
27957;SDS011;15295;42.658;23.374;2024-03-23T13:49:36;13.13;;;6.07;;
27957;SDS011;15295;42.658;23.374;2024-03-23T13:52:11;12.80;;;6.65;;
27957;SDS011;15295;42.658;23.374;2024-03-23T13:54:42;14.15;;;5.70;;
27957;SDS011;15295;42.658;23.374;2024-03-23T13:57:11;14.00;;;6.80;;
27957;SDS011;15295;42.658;23.374;2024-03-23T13:59:37;12.93;;;5.80;;
27957;SDS011;15295;42.658;23.374;2024-03-23T14:02:11;14.18;;;5.88;;
27957;SDS011;15295;42.658;23.374;2024-03-23T14:04:44;19.45;;;12.02;;
27957;SDS011;15295;42.658;23.374;2024-03-23T14:07:12;14.98;;;8.18;;
27957;SDS011;15295;42.658;23.374;2024-03-23T14:09:44;13.73;;;5.20;;
27957;SDS011;15295;42.658;23.374;2024-03-23T14:12:09;7.78;;;3.70;;
27957;SDS011;15295;42.658;23.374;2024-03-23T14:14:40;7.25;;;3.75;;
27957;SDS011;15295;42.658;23.374;2024-03-23T14:17:13;16.42;;;10.45;;
27957;SDS011;15295;42.658;23.374;2024-03-23T14:19:50;6.60;;;4.38;;
27957;SDS011;15295;42.658;23.374;2024-03-23T14:22:16;5.65;;;3.28;;
27957;SDS011;15295;42.658;23.374;2024-03-23T14:24:48;8.48;;;3.10;;
27957;SDS011;15295;42.658;23.374;2024-03-23T14:27:14;7.75;;;2.42;;
27957;SDS011;15295;42.658;23.374;2024-03-23T14:29:40;4.72;;;2.53;;
27957;SDS011;15295;42.658;23.374;2024-03-23T14:34:38;3.00;;;2.10;;
27957;SDS011;15295;42.658;23.374;2024-03-23T14:37:04;1.60;;;1.30;;
27957;SDS011;15295;42.658;23.374;2024-03-23T14:39:31;3.92;;;1.83;;
27957;SDS011;15295;42.658;23.374;2024-03-23T14:42:00;2.50;;;1.70;;
27957;SDS011;15295;42.658;23.374;2024-03-23T14:44:27;14.60;;;8.23;;
27957;SDS011;15295;42.658;23.374;2024-03-23T14:46:55;6.68;;;4.13;;
27957;SDS011;15295;42.658;23.374;2024-03-23T14:49:21;4.75;;;2.67;;
27957;SDS011;15295;42.658;23.374;2024-03-23T14:51:49;3.83;;;1.80;;
27957;SDS011;15295;42.658;23.374;2024-03-23T14:54:45;6.53;;;2.42;;
27957;SDS011;15295;42.658;23.374;2024-03-23T14:57:26;3.33;;;1.90;;
27957;SDS011;15295;42.658;23.374;2024-03-23T15:00:11;4.15;;;2.20;;
27957;SDS011;15295;42.658;23.374;2024-03-23T15:03:10;2.88;;;1.80;;
27957;SDS011;15295;42.658;23.374;2024-03-23T15:05:55;3.75;;;2.00;;
27957;SDS011;15295;42.658;23.374;2024-03-23T15:09:12;2.92;;;1.60;;
27957;SDS011;15295;42.658;23.374;2024-03-23T15:11:42;3.50;;;1.88;;
27957;SDS011;15295;42.658;23.374;2024-03-23T15:14:20;2.97;;;2.08;;
27957;SDS011;15295;42.658;23.374;2024-03-23T15:16:57;3.75;;;1.92;;
27957;SDS011;15295;42.658;23.374;2024-03-23T15:19:32;4.03;;;1.83;;
27957;SDS011;15295;42.658;23.374;2024-03-23T15:22:00;4.07;;;2.38;;
27957;SDS011;15295;42.658;23.374;2024-03-23T15:24:25;3.95;;;1.92;;
27957;SDS011;15295;42.658;23.374;2024-03-23T15:26:51;3.95;;;2.17;;
27957;SDS011;15295;42.658;23.374;2024-03-23T15:29:18;8.07;;;3.58;;
27957;SDS011;15295;42.658;23.374;2024-03-23T15:31:47;5.93;;;2.30;;
27957;SDS011;15295;42.658;23.374;2024-03-23T15:34:15;6.05;;;3.00;;
27957;SDS011;15295;42.658;23.374;2024-03-23T15:36:41;4.55;;;2.80;;
27957;SDS011;15295;42.658;23.374;2024-03-23T15:39:07;4.10;;;2.80;;
27957;SDS011;15295;42.658;23.374;2024-03-23T15:41:33;4.25;;;1.83;;
27957;SDS011;15295;42.658;23.374;2024-03-23T15:44:00;3.65;;;2.10;;
27957;SDS011;15295;42.658;23.374;2024-03-23T15:46:26;3.42;;;2.08;;
27957;SDS011;15295;42.658;23.374;2024-03-23T15:48:51;5.18;;;2.40;;
27957;SDS011;15295;42.658;23.374;2024-03-23T15:51:21;3.10;;;1.95;;
27957;SDS011;15295;42.658;23.374;2024-03-23T15:53:46;6.07;;;2.17;;
27957;SDS011;15295;42.658;23.374;2024-03-23T15:56:12;3.83;;;2.35;;
27957;SDS011;15295;42.658;23.374;2024-03-23T15:58:37;7.93;;;2.80;;
27957;SDS011;15295;42.658;23.374;2024-03-23T16:01:08;5.85;;;2.40;;
27957;SDS011;15295;42.658;23.374;2024-03-23T16:03:35;4.35;;;2.78;;
27957;SDS011;15295;42.658;23.374;2024-03-23T16:06:05;5.70;;;2.83;;
27957;SDS011;15295;42.658;23.374;2024-03-23T16:08:32;5.35;;;3.15;;
27957;SDS011;15295;42.658;23.374;2024-03-23T16:11:01;4.63;;;3.08;;
27957;SDS011;15295;42.658;23.374;2024-03-23T16:13:32;4.57;;;3.00;;
27957;SDS011;15295;42.658;23.374;2024-03-23T16:15:59;5.80;;;2.90;;
27957;SDS011;15295;42.658;23.374;2024-03-23T16:18:28;8.90;;;3.10;;
27957;SDS011;15295;42.658;23.374;2024-03-23T16:21:11;9.25;;;3.72;;
27957;SDS011;15295;42.658;23.374;2024-03-23T16:23:40;8.00;;;3.50;;
27957;SDS011;15295;42.658;23.374;2024-03-23T16:26:07;6.88;;;3.42;;
27957;SDS011;15295;42.658;23.374;2024-03-23T16:28:35;9.95;;;4.05;;
27957;SDS011;15295;42.658;23.374;2024-03-23T16:31:06;11.43;;;4.80;;
27957;SDS011;15295;42.658;23.374;2024-03-23T16:33:36;7.28;;;4.22;;
27957;SDS011;15295;42.658;23.374;2024-03-23T16:36:05;9.13;;;4.65;;
27957;SDS011;15295;42.658;23.374;2024-03-23T16:38:36;11.38;;;4.20;;
27957;SDS011;15295;42.658;23.374;2024-03-23T16:41:10;8.77;;;4.50;;
27957;SDS011;15295;42.658;23.374;2024-03-23T16:43:42;8.75;;;3.90;;
27957;SDS011;15295;42.658;23.374;2024-03-23T16:46:12;10.90;;;4.03;;
27957;SDS011;15295;42.658;23.374;2024-03-23T16:48:41;13.73;;;4.15;;
27957;SDS011;15295;42.658;23.374;2024-03-23T16:51:08;7.18;;;4.30;;
27957;SDS011;15295;42.658;23.374;2024-03-23T16:53:35;6.80;;;3.70;;
27957;SDS011;15295;42.658;23.374;2024-03-23T16:56:01;6.53;;;3.97;;
27957;SDS011;15295;42.658;23.374;2024-03-23T16:58:32;8.65;;;4.88;;
27957;SDS011;15295;42.658;23.374;2024-03-23T17:01:09;13.25;;;4.63;;
27957;SDS011;15295;42.658;23.374;2024-03-23T17:03:46;14.88;;;5.35;;
27957;SDS011;15295;42.658;23.374;2024-03-23T17:06:13;12.13;;;4.78;;
27957;SDS011;15295;42.658;23.374;2024-03-23T17:08:40;9.00;;;4.75;;
27957;SDS011;15295;42.658;23.374;2024-03-23T17:11:13;7.60;;;4.25;;
27957;SDS011;15295;42.658;23.374;2024-03-23T17:13:38;7.50;;;3.88;;
27957;SDS011;15295;42.658;23.374;2024-03-23T17:16:05;16.30;;;4.60;;
27957;SDS011;15295;42.658;23.374;2024-03-23T17:18:31;16.67;;;7.32;;
27957;SDS011;15295;42.658;23.374;2024-03-23T17:21:12;12.55;;;5.13;;